sensor_id;sensor_type;location;lat;lon;timestamp;pressure;altitude;pressure_sealevel;temperature;humidity
54822;BME280;41299;43.546;16.426;2022-09-13T00:01:13;101412.63;;;21.15;44.79
54822;BME280;41299;43.546;16.426;2022-09-13T00:03:38;101416.72;;;21.25;43.29
54822;BME280;41299;43.546;16.426;2022-09-13T00:06:11;101414.25;;;21.19;44.45
54822;BME280;41299;43.546;16.426;2022-09-13T00:08:37;101413.53;;;21.13;44.66
54822;BME280;41299;43.546;16.426;2022-09-13T00:11:03;101418.81;;;21.12;44.83
54822;BME280;41299;43.546;16.426;2022-09-13T00:13:29;101425.09;;;21.06;47.94
54822;BME280;41299;43.546;16.426;2022-09-13T00:15:54;101427.06;;;20.98;49.69
54822;BME280;41299;43.546;16.426;2022-09-13T00:18:19;101424.84;;;20.81;56.16
54822;BME280;41299;43.546;16.426;2022-09-13T00:20:45;101426.88;;;20.71;57.26
54822;BME280;41299;43.546;16.426;2022-09-13T00:23:11;101420.81;;;20.69;55.81
54822;BME280;41299;43.546;16.426;2022-09-13T00:25:37;101425.38;;;20.60;59.73
54822;BME280;41299;43.546;16.426;2022-09-13T00:28:03;101421.13;;;20.56;62.99
54822;BME280;41299;43.546;16.426;2022-09-13T00:30:29;101420.31;;;20.53;58.47
54822;BME280;41299;43.546;16.426;2022-09-13T00:32:55;101413.38;;;20.52;61.29
54822;BME280;41299;43.546;16.426;2022-09-13T00:35:20;101420.56;;;20.45;65.33
54822;BME280;41299;43.546;16.426;2022-09-13T00:37:46;101413.81;;;20.35;69.69
54822;BME280;41299;43.546;16.426;2022-09-13T00:40:12;101416.50;;;20.31;62.94
54822;BME280;41299;43.546;16.426;2022-09-13T00:42:37;101418.16;;;20.36;55.59
54822;BME280;41299;43.546;16.426;2022-09-13T00:47:54;101409.38;;;20.37;55.69
54822;BME280;41299;43.546;16.426;2022-09-13T00:53:09;101404.28;;;20.32;52.55
54822;BME280;41299;43.546;16.426;2022-09-13T00:55:41;101405.16;;;20.31;51.92
54822;BME280;41299;43.546;16.426;2022-09-13T00:58:15;101399.94;;;20.31;52.18
54822;BME280;41299;43.546;16.426;2022-09-13T01:00:43;101403.56;;;20.25;54.23
54822;BME280;41299;43.546;16.426;2022-09-13T01:03:11;101403.66;;;20.20;53.41
54822;BME280;41299;43.546;16.426;2022-09-13T01:05:41;101402.88;;;20.17;53.18
54822;BME280;41299;43.546;16.426;2022-09-13T01:08:09;101404.66;;;20.15;53.18
54822;BME280;41299;43.546;16.426;2022-09-13T01:10:43;101401.22;;;20.13;53.85
54822;BME280;41299;43.546;16.426;2022-09-13T01:13:13;101397.84;;;20.09;53.67
54822;BME280;41299;43.546;16.426;2022-09-13T01:15:40;101394.28;;;20.12;54.01
54822;BME280;41299;43.546;16.426;2022-09-13T01:18:07;101399.56;;;20.09;53.68
54822;BME280;41299;43.546;16.426;2022-09-13T01:30:07;101398.56;;;19.76;58.31
54822;BME280;41299;43.546;16.426;2022-09-13T01:32:43;101407.50;;;19.66;62.88
54822;BME280;41299;43.546;16.426;2022-09-13T01:51:32;101411.53;;;19.38;58.34
54822;BME280;41299;43.546;16.426;2022-09-13T01:54:10;101409.81;;;19.39;61.12
54822;BME280;41299;43.546;16.426;2022-09-13T01:56:48;101398.72;;;19.26;65.83
54822;BME280;41299;43.546;16.426;2022-09-13T01:59:21;101403.25;;;19.19;69.34
54822;BME280;41299;43.546;16.426;2022-09-13T02:04:39;101398.03;;;19.18;62.69
54822;BME280;41299;43.546;16.426;2022-09-13T02:07:17;101401.38;;;19.24;56.83
54822;BME280;41299;43.546;16.426;2022-09-13T02:09:48;101402.00;;;19.36;53.34
54822;BME280;41299;43.546;16.426;2022-09-13T02:12:20;101396.31;;;19.58;51.26
54822;BME280;41299;43.546;16.426;2022-09-13T02:15:17;101394.19;;;19.75;49.14
54822;BME280;41299;43.546;16.426;2022-09-13T02:18:27;101393.19;;;19.83;49.64
54822;BME280;41299;43.546;16.426;2022-09-13T02:20:58;101391.53;;;19.78;50.12
54822;BME280;41299;43.546;16.426;2022-09-13T02:23:30;101396.75;;;19.78;49.71
54822;BME280;41299;43.546;16.426;2022-09-13T02:25:57;101388.69;;;19.88;48.02
54822;BME280;41299;43.546;16.426;2022-09-13T02:28:33;101393.72;;;19.99;47.65
54822;BME280;41299;43.546;16.426;2022-09-13T02:31:00;101397.41;;;19.88;49.88
54822;BME280;41299;43.546;16.426;2022-09-13T02:33:35;101412.31;;;19.85;49.39
54822;BME280;41299;43.546;16.426;2022-09-13T02:36:08;101404.34;;;19.89;46.92
54822;BME280;41299;43.546;16.426;2022-09-13T02:38:59;101413.84;;;19.95;47.19
54822;BME280;41299;43.546;16.426;2022-09-13T02:41:38;101408.66;;;19.92;48.59
54822;BME280;41299;43.546;16.426;2022-09-13T02:44:12;101412.13;;;19.94;48.55
54822;BME280;41299;43.546;16.426;2022-09-13T02:52:06;101405.41;;;19.80;49.75
54822;BME280;41299;43.546;16.426;2022-09-13T02:54:47;101402.00;;;19.78;48.32
54822;BME280;41299;43.546;16.426;2022-09-13T02:57:27;101409.75;;;19.82;47.58
54822;BME280;41299;43.546;16.426;2022-09-13T02:59:56;101412.47;;;19.78;47.78
54822;BME280;41299;43.546;16.426;2022-09-13T03:02:24;101411.56;;;19.79;47.63
54822;BME280;41299;43.546;16.426;2022-09-13T03:04:52;101413.41;;;19.74;48.99
54822;BME280;41299;43.546;16.426;2022-09-13T03:07:18;101428.97;;;19.80;47.35
54822;BME280;41299;43.546;16.426;2022-09-13T03:10:00;101424.63;;;19.79;49.18
54822;BME280;41299;43.546;16.426;2022-09-13T03:15:22;101431.53;;;19.84;47.28
54822;BME280;41299;43.546;16.426;2022-09-13T03:18:15;101427.22;;;19.83;47.19
54822;BME280;41299;43.546;16.426;2022-09-13T03:24:17;101427.16;;;19.84;47.04
54822;BME280;41299;43.546;16.426;2022-09-13T03:29:08;101428.28;;;19.72;46.97
54822;BME280;41299;43.546;16.426;2022-09-13T03:34:33;101432.47;;;19.38;53.87
54822;BME280;41299;43.546;16.426;2022-09-13T03:39:47;101440.59;;;19.24;66.34
54822;BME280;41299;43.546;16.426;2022-09-13T03:42:23;101441.56;;;19.20;70.88
54822;BME280;41299;43.546;16.426;2022-09-13T03:44:54;101436.47;;;19.14;77.06
54822;BME280;41299;43.546;16.426;2022-09-13T03:47:23;101444.44;;;19.06;76.16
54822;BME280;41299;43.546;16.426;2022-09-13T03:49:51;101434.91;;;19.00;74.07
54822;BME280;41299;43.546;16.426;2022-09-13T03:52:17;101434.91;;;19.00;73.46
54822;BME280;41299;43.546;16.426;2022-09-13T03:54:43;101428.13;;;18.90;76.61
54822;BME280;41299;43.546;16.426;2022-09-13T03:57:16;101422.84;;;18.93;65.55
54822;BME280;41299;43.546;16.426;2022-09-13T03:59:48;101421.06;;;18.95;66.57
54822;BME280;41299;43.546;16.426;2022-09-13T04:02:14;101430.00;;;18.85;70.96
54822;BME280;41299;43.546;16.426;2022-09-13T04:04:41;101415.34;;;18.76;72.38
54822;BME280;41299;43.546;16.426;2022-09-13T04:07:09;101421.41;;;18.77;71.39
54822;BME280;41299;43.546;16.426;2022-09-13T04:09:35;101407.63;;;18.68;72.44
54822;BME280;41299;43.546;16.426;2022-09-13T04:12:01;101416.44;;;18.61;70.46
54822;BME280;41299;43.546;16.426;2022-09-13T04:14:26;101417.53;;;18.49;77.12
54822;BME280;41299;43.546;16.426;2022-09-13T04:16:53;101433.44;;;18.35;82.85
54822;BME280;41299;43.546;16.426;2022-09-13T04:19:19;101434.47;;;18.23;80.33
54822;BME280;41299;43.546;16.426;2022-09-13T04:21:52;101430.22;;;18.19;83.08
54822;BME280;41299;43.546;16.426;2022-09-13T04:24:18;101431.13;;;18.16;85.48
54822;BME280;41299;43.546;16.426;2022-09-13T04:26:48;101429.44;;;18.12;85.53
54822;BME280;41299;43.546;16.426;2022-09-13T04:29:15;101430.34;;;18.10;84.36
54822;BME280;41299;43.546;16.426;2022-09-13T04:31:43;101423.47;;;18.01;86.19
54822;BME280;41299;43.546;16.426;2022-09-13T04:34:08;101430.44;;;18.00;83.74
54822;BME280;41299;43.546;16.426;2022-09-13T04:36:33;101432.16;;;18.01;84.09
54822;BME280;41299;43.546;16.426;2022-09-13T04:38:59;101431.31;;;18.01;85.44
54822;BME280;41299;43.546;16.426;2022-09-13T04:41:24;101438.25;;;18.02;82.49
54822;BME280;41299;43.546;16.426;2022-09-13T04:43:50;101436.59;;;17.95;85.51
54822;BME280;41299;43.546;16.426;2022-09-13T04:46:16;101433.19;;;17.89;81.32
54822;BME280;41299;43.546;16.426;2022-09-13T04:48:41;101440.13;;;17.90;85.14
54822;BME280;41299;43.546;16.426;2022-09-13T04:51:07;101447.16;;;17.85;90.34
54822;BME280;41299;43.546;16.426;2022-09-13T04:53:32;101440.25;;;17.81;82.86
54822;BME280;41299;43.546;16.426;2022-09-13T04:56:04;101445.44;;;17.84;79.69
54822;BME280;41299;43.546;16.426;2022-09-13T04:58:30;101452.47;;;17.79;86.96
54822;BME280;41299;43.546;16.426;2022-09-13T05:01:04;101447.34;;;17.70;88.98
54822;BME280;41299;43.546;16.426;2022-09-13T05:03:30;101450.09;;;17.60;89.85
54822;BME280;41299;43.546;16.426;2022-09-13T05:06:12;101450.13;;;17.56;90.53
54822;BME280;41299;43.546;16.426;2022-09-13T05:08:39;101453.69;;;17.53;91.12
54822;BME280;41299;43.546;16.426;2022-09-13T05:11:06;101451.97;;;17.50;95.47
54822;BME280;41299;43.546;16.426;2022-09-13T05:13:31;101446.78;;;17.47;97.02
54822;BME280;41299;43.546;16.426;2022-09-13T05:16:06;101455.50;;;17.45;100.00
54822;BME280;41299;43.546;16.426;2022-09-13T05:18:34;101456.38;;;17.44;100.00
54822;BME280;41299;43.546;16.426;2022-09-13T05:21:02;101452.88;;;17.48;100.00
54822;BME280;41299;43.546;16.426;2022-09-13T05:23:28;101454.53;;;17.53;100.00
54822;BME280;41299;43.546;16.426;2022-09-13T05:25:59;101460.47;;;17.63;100.00
54822;BME280;41299;43.546;16.426;2022-09-13T05:28:30;101460.38;;;17.73;98.74
54822;BME280;41299;43.546;16.426;2022-09-13T05:31:04;101461.06;;;17.87;94.67
54822;BME280;41299;43.546;16.426;2022-09-13T05:33:32;101460.94;;;17.95;93.92
54822;BME280;41299;43.546;16.426;2022-09-13T05:35:57;101466.94;;;18.03;92.04
54822;BME280;41299;43.546;16.426;2022-09-13T05:38:23;101460.78;;;18.09;93.57
54822;BME280;41299;43.546;16.426;2022-09-13T05:40:55;101460.75;;;18.12;98.48
54822;BME280;41299;43.546;16.426;2022-09-13T05:43:22;101459.91;;;18.10;97.00
54822;BME280;41299;43.546;16.426;2022-09-13T05:45:47;101462.53;;;18.10;96.95
54822;BME280;41299;43.546;16.426;2022-09-13T05:48:13;101463.38;;;18.09;98.68
54822;BME280;41299;43.546;16.426;2022-09-13T05:50:38;101460.78;;;18.09;99.50
54822;BME280;41299;43.546;16.426;2022-09-13T05:53:04;101465.97;;;18.11;97.05
54822;BME280;41299;43.546;16.426;2022-09-13T05:55:30;101462.44;;;18.16;94.80
54822;BME280;41299;43.546;16.426;2022-09-13T05:57:56;101464.97;;;18.21;95.48
54822;BME280;41299;43.546;16.426;2022-09-13T06:00:22;101467.50;;;18.26;94.89
54822;BME280;41299;43.546;16.426;2022-09-13T06:02:47;101463.13;;;18.28;95.75
54822;BME280;41299;43.546;16.426;2022-09-13T06:05:13;101466.59;;;18.30;96.98
54822;BME280;41299;43.546;16.426;2022-09-13T06:07:40;101461.31;;;18.33;92.81
54822;BME280;41299;43.546;16.426;2022-09-13T06:10:06;101468.16;;;18.40;92.16
54822;BME280;41299;43.546;16.426;2022-09-13T06:12:32;101459.41;;;18.44;92.52
54822;BME280;41299;43.546;16.426;2022-09-13T06:14:58;101467.97;;;18.53;95.23
54822;BME280;41299;43.546;16.426;2022-09-13T06:17:23;101468.75;;;18.58;97.08
54822;BME280;41299;43.546;16.426;2022-09-13T06:19:48;101467.75;;;18.65;94.82
54822;BME280;41299;43.546;16.426;2022-09-13T06:22:16;101469.38;;;18.72;93.33
54822;BME280;41299;43.546;16.426;2022-09-13T06:24:42;101468.44;;;18.77;90.02
54822;BME280;41299;43.546;16.426;2022-09-13T06:27:07;101470.06;;;18.84;92.21
54822;BME280;41299;43.546;16.426;2022-09-13T06:29:34;101468.19;;;18.91;91.72
54822;BME280;41299;43.546;16.426;2022-09-13T06:32:01;101464.53;;;19.03;91.78
54822;BME280;41299;43.546;16.426;2022-09-13T06:34:26;101473.19;;;19.08;86.37
54822;BME280;41299;43.546;16.426;2022-09-13T06:36:52;101467.84;;;19.14;88.76
54822;BME280;41299;43.546;16.426;2022-09-13T06:39:19;101462.47;;;19.20;91.25
54822;BME280;41299;43.546;16.426;2022-09-13T06:41:44;101459.72;;;19.28;89.53
54822;BME280;41299;43.546;16.426;2022-09-13T06:44:10;101461.25;;;19.38;91.90
54822;BME280;41299;43.546;16.426;2022-09-13T06:46:35;101449.69;;;19.49;89.72
54822;BME280;41299;43.546;16.426;2022-09-13T06:49:04;101455.56;;;19.62;92.08
54822;BME280;41299;43.546;16.426;2022-09-13T06:51:30;101455.41;;;19.68;87.18
54822;BME280;41299;43.546;16.426;2022-09-13T06:53:56;101457.00;;;19.75;88.74
54822;BME280;41299;43.546;16.426;2022-09-13T06:56:24;101458.53;;;19.86;82.98
54822;BME280;41299;43.546;16.426;2022-09-13T06:58:51;101454.88;;;19.93;87.91
54822;BME280;41299;43.546;16.426;2022-09-13T07:01:22;101452.06;;;20.04;88.29
54822;BME280;41299;43.546;16.426;2022-09-13T07:03:50;101456.97;;;20.18;89.09
54822;BME280;41299;43.546;16.426;2022-09-13T07:06:20;101452.41;;;20.26;83.96
54822;BME280;41299;43.546;16.426;2022-09-13T07:08:46;101455.75;;;20.33;83.29
54822;BME280;41299;43.546;16.426;2022-09-13T07:11:14;101451.91;;;20.46;69.23
54822;BME280;41299;43.546;16.426;2022-09-13T07:13:40;101452.50;;;20.58;66.10
54822;BME280;41299;43.546;16.426;2022-09-13T07:16:10;101456.72;;;20.65;73.52
54822;BME280;41299;43.546;16.426;2022-09-13T07:18:36;101445.16;;;20.74;72.81
54822;BME280;41299;43.546;16.426;2022-09-13T07:21:04;101448.44;;;20.81;71.36
54822;BME280;41299;43.546;16.426;2022-09-13T07:23:34;101446.56;;;20.88;68.95
54822;BME280;41299;43.546;16.426;2022-09-13T07:26:00;101460.22;;;21.00;69.08
54822;BME280;41299;43.546;16.426;2022-09-13T07:28:31;101455.56;;;21.10;65.40
54822;BME280;41299;43.546;16.426;2022-09-13T07:31:04;101448.34;;;21.19;65.58
54822;BME280;41299;43.546;16.426;2022-09-13T07:33:30;101450.84;;;21.23;63.63
54822;BME280;41299;43.546;16.426;2022-09-13T07:35:56;101447.19;;;21.29;64.03
54822;BME280;41299;43.546;16.426;2022-09-13T07:38:21;101446.19;;;21.33;60.79
54822;BME280;41299;43.546;16.426;2022-09-13T07:40:56;101444.16;;;21.43;57.63
54822;BME280;41299;43.546;16.426;2022-09-13T07:43:24;101444.72;;;21.54;58.36
54822;BME280;41299;43.546;16.426;2022-09-13T07:48:31;101444.97;;;21.77;54.05
54822;BME280;41299;43.546;16.426;2022-09-13T07:51:03;101443.84;;;21.86;56.83
54822;BME280;41299;43.546;16.426;2022-09-13T07:53:30;101456.47;;;22.01;54.63
54822;BME280;41299;43.546;16.426;2022-09-13T07:56:00;101442.91;;;22.15;51.75
54822;BME280;41299;43.546;16.426;2022-09-13T07:58:26;101444.53;;;22.19;52.13
54822;BME280;41299;43.546;16.426;2022-09-13T08:00:51;101451.09;;;22.33;51.75
54822;BME280;41299;43.546;16.426;2022-09-13T08:03:17;101454.19;;;22.46;48.22
54822;BME280;41299;43.546;16.426;2022-09-13T08:05:42;101455.91;;;22.47;50.99
54822;BME280;41299;43.546;16.426;2022-09-13T08:08:08;101458.38;;;22.52;49.35
54822;BME280;41299;43.546;16.426;2022-09-13T08:10:33;101459.97;;;22.57;48.96
54822;BME280;41299;43.546;16.426;2022-09-13T08:12:59;101455.47;;;22.61;49.26
54822;BME280;41299;43.546;16.426;2022-09-13T08:15:25;101453.44;;;22.69;46.12
54822;BME280;41299;43.546;16.426;2022-09-13T08:17:51;101458.50;;;22.76;46.75
54822;BME280;41299;43.546;16.426;2022-09-13T08:20:19;101466.97;;;22.84;47.38
54822;BME280;41299;43.546;16.426;2022-09-13T08:22:44;101467.63;;;22.91;46.36
54822;BME280;41299;43.546;16.426;2022-09-13T08:25:10;101475.25;;;22.98;45.18
54822;BME280;41299;43.546;16.426;2022-09-13T08:27:35;101469.75;;;23.05;45.29
54822;BME280;41299;43.546;16.426;2022-09-13T08:30:01;101476.56;;;23.10;46.16
54822;BME280;41299;43.546;16.426;2022-09-13T08:32:26;101468.53;;;23.15;45.45
54822;BME280;41299;43.546;16.426;2022-09-13T08:34:52;101470.06;;;23.21;43.96
54822;BME280;41299;43.546;16.426;2022-09-13T08:37:17;101476.06;;;23.24;43.13
54822;BME280;41299;43.546;16.426;2022-09-13T08:39:43;101477.69;;;23.29;43.84
54822;BME280;41299;43.546;16.426;2022-09-13T08:45:09;101473.84;;;23.39;42.04
54822;BME280;41299;43.546;16.426;2022-09-13T08:52:39;101474.66;;;23.65;42.80
54822;BME280;41299;43.546;16.426;2022-09-13T09:07:05;101462.81;;;23.75;61.27
54822;BME280;41299;43.546;16.426;2022-09-13T09:09:40;101462.13;;;23.70;67.63
54822;BME280;41299;43.546;16.426;2022-09-13T09:12:17;101472.47;;;23.76;66.20
54822;BME280;41299;43.546;16.426;2022-09-13T09:20:28;101455.06;;;23.94;55.65
54822;BME280;41299;43.546;16.426;2022-09-13T09:23:01;101459.59;;;23.91;60.09
54822;BME280;41299;43.546;16.426;2022-09-13T09:25:27;101461.16;;;23.97;58.11
54822;BME280;41299;43.546;16.426;2022-09-13T09:27:53;101459.28;;;23.99;55.08
54822;BME280;41299;43.546;16.426;2022-09-13T09:30:19;101465.19;;;24.05;54.17
54822;BME280;41299;43.546;16.426;2022-09-13T09:40:34;101454.41;;;24.34;45.54
54822;BME280;41299;43.546;16.426;2022-09-13T09:43:16;101455.00;;;24.41;43.71
54822;BME280;41299;43.546;16.426;2022-09-13T09:45:45;101457.50;;;24.44;42.01
54822;BME280;41299;43.546;16.426;2022-09-13T09:48:16;101453.81;;;24.48;42.97
54822;BME280;41299;43.546;16.426;2022-09-13T09:50:49;101451.84;;;24.53;44.19
54822;BME280;41299;43.546;16.426;2022-09-13T09:55:48;101463.72;;;24.64;42.15
54822;BME280;41299;43.546;16.426;2022-09-13T09:58:16;101453.84;;;24.69;40.44
54822;BME280;41299;43.546;16.426;2022-09-13T10:00:57;101457.25;;;24.71;41.33
54822;BME280;41299;43.546;16.426;2022-09-13T10:03:31;101466.63;;;24.78;40.71
54822;BME280;41299;43.546;16.426;2022-09-13T10:06:14;101451.47;;;24.83;41.29
54822;BME280;41299;43.546;16.426;2022-09-13T10:08:57;101449.47;;;24.68;41.64
54822;BME280;41299;43.546;16.426;2022-09-13T10:11:58;101453.28;;;24.83;42.38
54822;BME280;41299;43.546;16.426;2022-09-13T10:14:42;101455.56;;;24.91;42.62
54822;BME280;41299;43.546;16.426;2022-09-13T10:17:26;101455.31;;;24.97;39.97
54822;BME280;41299;43.546;16.426;2022-09-13T10:20:21;101459.34;;;25.06;40.33
54822;BME280;41299;43.546;16.426;2022-09-13T10:25:43;101457.13;;;25.16;41.85
54822;BME280;41299;43.546;16.426;2022-09-13T10:28:18;101454.50;;;25.16;40.84
54822;BME280;41299;43.546;16.426;2022-09-13T10:30:51;101440.25;;;25.20;40.79
54822;BME280;41299;43.546;16.426;2022-09-13T10:35:58;101442.59;;;25.26;35.87
54822;BME280;41299;43.546;16.426;2022-09-13T10:38:36;101442.38;;;25.31;33.62
54822;BME280;41299;43.546;16.426;2022-09-13T10:41:05;101442.25;;;25.34;31.29
54822;BME280;41299;43.546;16.426;2022-09-13T10:43:32;101435.31;;;25.31;31.63
54822;BME280;41299;43.546;16.426;2022-09-13T10:46:00;101435.03;;;25.37;33.46
54822;BME280;41299;43.546;16.426;2022-09-13T10:48:28;101427.53;;;25.47;32.90
54822;BME280;41299;43.546;16.426;2022-09-13T10:51:14;101430.47;;;25.41;32.61
54822;BME280;41299;43.546;16.426;2022-09-13T10:53:45;101432.03;;;25.26;32.91
54822;BME280;41299;43.546;16.426;2022-09-13T10:56:24;101430.25;;;25.46;34.78
54822;BME280;41299;43.546;16.426;2022-09-13T10:58:50;101422.00;;;25.53;34.74
54822;BME280;41299;43.546;16.426;2022-09-13T11:01:48;101421.66;;;25.61;34.71
54822;BME280;41299;43.546;16.426;2022-09-13T11:04:44;101414.38;;;25.66;35.81
54822;BME280;41299;43.546;16.426;2022-09-13T11:07:35;101421.00;;;25.75;38.04
54822;BME280;41299;43.546;16.426;2022-09-13T11:11:06;101412.66;;;25.65;38.02
54822;BME280;41299;43.546;16.426;2022-09-13T11:22:14;101413.00;;;25.77;43.92
54822;BME280;41299;43.546;16.426;2022-09-13T11:30:07;101406.63;;;25.99;53.10
54822;BME280;41299;43.546;16.426;2022-09-13T11:57:25;101402.91;;;26.73;57.02
54822;BME280;41299;43.546;16.426;2022-09-13T12:00:02;101400.75;;;26.82;61.99
54822;BME280;41299;43.546;16.426;2022-09-13T12:02:38;101398.03;;;26.83;47.83
54822;BME280;41299;43.546;16.426;2022-09-13T12:05:18;101405.28;;;26.80;46.64
54822;BME280;41299;43.546;16.426;2022-09-13T12:10:33;101407.38;;;26.73;44.39
54822;BME280;41299;43.546;16.426;2022-09-13T12:13:03;101395.78;;;26.76;45.10
54822;BME280;41299;43.546;16.426;2022-09-13T12:15:40;101393.91;;;26.78;46.42
54822;BME280;41299;43.546;16.426;2022-09-13T12:18:25;101388.00;;;26.72;47.39
54822;BME280;41299;43.546;16.426;2022-09-13T12:21:08;101388.94;;;26.71;46.16
54822;BME280;41299;43.546;16.426;2022-09-13T12:24:00;101384.84;;;26.66;48.25
54822;BME280;41299;43.546;16.426;2022-09-13T12:26:40;101383.38;;;26.76;49.38
54822;BME280;41299;43.546;16.426;2022-09-13T12:29:16;101382.22;;;26.82;53.05
54822;BME280;41299;43.546;16.426;2022-09-13T12:31:43;101381.34;;;26.81;54.63
54822;BME280;41299;43.546;16.426;2022-09-13T12:34:15;101375.38;;;26.78;51.37
54822;BME280;41299;43.546;16.426;2022-09-13T12:37:07;101372.41;;;26.84;62.06
54822;BME280;41299;43.546;16.426;2022-09-13T12:51:02;101366.09;;;26.86;64.42
54822;BME280;41299;43.546;16.426;2022-09-13T12:54:01;101365.06;;;26.89;67.52
54822;BME280;41299;43.546;16.426;2022-09-13T12:57:13;101360.28;;;26.80;67.75
54822;BME280;41299;43.546;16.426;2022-09-13T13:02:36;101361.66;;;26.87;77.41
54822;BME280;41299;43.546;16.426;2022-09-13T13:05:19;101354.66;;;26.86;73.36
54822;BME280;41299;43.546;16.426;2022-09-13T13:07:52;101356.81;;;26.95;69.39
54822;BME280;41299;43.546;16.426;2022-09-13T13:10:28;101349.19;;;26.89;69.46
54822;BME280;41299;43.546;16.426;2022-09-13T13:12:56;101350.78;;;26.93;66.65
54822;BME280;41299;43.546;16.426;2022-09-13T13:19:01;101338.75;;;27.04;76.14
54822;BME280;41299;43.546;16.426;2022-09-13T13:26:51;101337.06;;;27.03;77.30
54822;BME280;41299;43.546;16.426;2022-09-13T13:34:46;101326.53;;;27.17;72.81
54822;BME280;41299;43.546;16.426;2022-09-13T13:39:43;101327.28;;;27.19;74.63
54822;BME280;41299;43.546;16.426;2022-09-13T13:59:53;101316.06;;;26.82;95.01
54822;BME280;41299;43.546;16.426;2022-09-13T14:02:24;101319.19;;;26.72;99.38
54822;BME280;41299;43.546;16.426;2022-09-13T14:07:43;101320.44;;;26.49;100.00
54822;BME280;41299;43.546;16.426;2022-09-13T14:13:17;101323.00;;;26.51;97.06
54822;BME280;41299;43.546;16.426;2022-09-13T14:21:24;101323.94;;;26.50;100.00
54822;BME280;41299;43.546;16.426;2022-09-13T14:26:38;101326.78;;;26.63;100.00
54822;BME280;41299;43.546;16.426;2022-09-13T14:29:07;101322.84;;;26.54;100.00
54822;BME280;41299;43.546;16.426;2022-09-13T14:31:33;101332.56;;;26.53;100.00
54822;BME280;41299;43.546;16.426;2022-09-13T14:33:59;101332.56;;;26.53;100.00
54822;BME280;41299;43.546;16.426;2022-09-13T14:36:24;101329.31;;;26.48;100.00
54822;BME280;41299;43.546;16.426;2022-09-13T14:39:00;101331.69;;;26.37;100.00
54822;BME280;41299;43.546;16.426;2022-09-13T14:41:36;101331.13;;;26.30;100.00
54822;BME280;41299;43.546;16.426;2022-09-13T14:44:21;101327.47;;;26.32;100.00
54822;BME280;41299;43.546;16.426;2022-09-13T14:46:57;101331.97;;;26.30;100.00
54822;BME280;41299;43.546;16.426;2022-09-13T14:49:28;101329.03;;;26.37;100.00
54822;BME280;41299;43.546;16.426;2022-09-13T14:51:59;101323.88;;;26.33;100.00
54822;BME280;41299;43.546;16.426;2022-09-13T14:57:02;101321.72;;;26.24;100.00
54822;BME280;41299;43.546;16.426;2022-09-13T14:59:57;101325.66;;;26.33;100.00
54822;BME280;41299;43.546;16.426;2022-09-13T15:02:28;101330.63;;;26.22;100.00
54822;BME280;41299;43.546;16.426;2022-09-13T15:04:56;101330.19;;;26.13;100.00
54822;BME280;41299;43.546;16.426;2022-09-13T15:07:33;101334.28;;;26.19;100.00
54822;BME280;41299;43.546;16.426;2022-09-13T15:10:31;101325.75;;;26.14;100.00
54822;BME280;41299;43.546;16.426;2022-09-13T15:17:56;101324.34;;;25.89;100.00
54822;BME280;41299;43.546;16.426;2022-09-13T15:20:23;101331.56;;;25.85;100.00
54822;BME280;41299;43.546;16.426;2022-09-13T15:22:49;101335.44;;;25.78;100.00
54822;BME280;41299;43.546;16.426;2022-09-13T15:25:24;101340.88;;;25.75;100.00
54822;BME280;41299;43.546;16.426;2022-09-13T15:27:50;101342.41;;;25.61;100.00
54822;BME280;41299;43.546;16.426;2022-09-13T15:33:03;101343.25;;;25.62;100.00
54822;BME280;41299;43.546;16.426;2022-09-13T15:35:34;101342.56;;;25.58;100.00
54822;BME280;41299;43.546;16.426;2022-09-13T15:40:46;101345.34;;;25.55;100.00
54822;BME280;41299;43.546;16.426;2022-09-13T15:43:12;101346.31;;;25.52;100.00
54822;BME280;41299;43.546;16.426;2022-09-13T15:45:38;101357.81;;;25.51;100.00
54822;BME280;41299;43.546;16.426;2022-09-13T15:48:03;101344.81;;;25.47;100.00
54822;BME280;41299;43.546;16.426;2022-09-13T15:50:30;101346.75;;;25.43;100.00
54822;BME280;41299;43.546;16.426;2022-09-13T15:52:58;101349.75;;;25.35;100.00
54822;BME280;41299;43.546;16.426;2022-09-13T15:55:25;101353.03;;;25.40;100.00
54822;BME280;41299;43.546;16.426;2022-09-13T15:57:51;101349.63;;;25.38;100.00
54822;BME280;41299;43.546;16.426;2022-09-13T16:00:24;101343.34;;;25.41;100.00
54822;BME280;41299;43.546;16.426;2022-09-13T16:02:50;101343.78;;;25.32;100.00
54822;BME280;41299;43.546;16.426;2022-09-13T16:05:16;101350.28;;;25.24;97.70
54822;BME280;41299;43.546;16.426;2022-09-13T16:07:44;101350.75;;;25.13;100.00
54822;BME280;41299;43.546;16.426;2022-09-13T16:10:18;101351.56;;;25.16;100.00
54822;BME280;41299;43.546;16.426;2022-09-13T16:12:44;101352.97;;;25.04;100.00
54822;BME280;41299;43.546;16.426;2022-09-13T16:15:10;101354.69;;;25.05;100.00
54822;BME280;41299;43.546;16.426;2022-09-13T16:17:37;101352.69;;;24.91;100.00
54822;BME280;41299;43.546;16.426;2022-09-13T16:20:04;101349.41;;;24.85;100.00
54822;BME280;41299;43.546;16.426;2022-09-13T16:22:31;101346.16;;;24.79;100.00
54822;BME280;41299;43.546;16.426;2022-09-13T16:24:56;101353.34;;;24.75;100.00
54822;BME280;41299;43.546;16.426;2022-09-13T16:27:22;101350.13;;;24.68;100.00
54822;BME280;41299;43.546;16.426;2022-09-13T16:29:50;101349.69;;;24.58;100.00
54822;BME280;41299;43.546;16.426;2022-09-13T16:32:16;101358.91;;;24.48;100.00